createdAt,value
2018-11-21T00:00:20.079Z,16.17
2018-11-21T00:05:33.445Z,17.03
2018-11-21T00:10:46.869Z,16.73
2018-11-21T00:16:00.223Z,17.73
2018-11-21T00:21:13.617Z,17.27
2018-11-21T00:26:27.174Z,17.37
2018-11-21T00:37:46.420Z,17.97
2018-11-21T00:43:03.259Z,19.57
2018-11-21T00:48:16.687Z,21.20
2018-11-21T00:53:30.279Z,17.73
2018-11-21T00:58:43.642Z,18.27
2018-11-21T01:03:57.033Z,18.67
2018-11-21T01:09:10.432Z,17.03
2018-11-21T01:14:23.847Z,19.13
2018-11-21T01:19:37.251Z,18.60
2018-11-21T01:24:50.642Z,18.13
2018-11-21T01:30:04.098Z,18.80
2018-11-21T01:35:17.528Z,18.27
2018-11-21T01:40:30.892Z,20.63
2018-11-21T01:45:44.248Z,19.03
2018-11-21T01:50:57.616Z,21.67
2018-11-21T01:56:10.993Z,21.60
2018-11-21T02:01:24.377Z,22.33
2018-11-21T02:06:37.755Z,20.90
2018-11-21T02:11:51.148Z,21.17
2018-11-21T02:17:04.508Z,21.57
2018-11-21T02:22:17.895Z,25.00
2018-11-21T02:27:31.266Z,21.07
2018-11-21T02:32:44.605Z,22.70
2018-11-21T02:37:57.990Z,23.53
2018-11-21T02:43:11.377Z,25.10
2018-11-21T02:48:24.802Z,21.60
2018-11-21T02:53:38.157Z,19.10
2018-11-21T02:58:52.370Z,22.60
2018-11-21T03:04:05.814Z,21.27
2018-11-21T03:09:19.232Z,22.40
2018-11-21T03:14:32.593Z,24.10
2018-11-21T03:19:46.327Z,19.83
2018-11-21T03:24:59.688Z,23.07
2018-11-21T03:30:13.405Z,22.03
2018-11-21T03:35:26.810Z,24.80
2018-11-21T03:40:40.170Z,23.83
2018-11-21T03:45:53.550Z,23.90
2018-11-21T03:51:06.912Z,21.73
2018-11-21T03:56:20.288Z,25.50
2018-11-21T04:01:33.682Z,21.67
2018-11-21T04:06:47.039Z,25.23
2018-11-21T04:12:00.422Z,23.73
2018-11-21T04:17:13.765Z,24.67
2018-11-21T04:22:27.127Z,25.97
2018-11-21T04:27:40.639Z,23.53
2018-11-21T04:32:54.024Z,24.27
2018-11-21T04:38:07.388Z,24.63
2018-11-21T04:43:20.837Z,27.30
2018-11-21T04:48:34.360Z,26.67
2018-11-21T04:53:47.732Z,24.77
2018-11-21T04:59:01.107Z,22.20
2018-11-21T05:04:14.569Z,22.70
2018-11-21T05:09:27.948Z,27.43
2018-11-21T05:14:41.289Z,23.10
2018-11-21T05:19:54.665Z,25.40
2018-11-21T05:25:09.245Z,23.53
2018-11-21T05:30:22.616Z,24.27
2018-11-21T05:35:35.963Z,25.10
2018-11-21T05:40:49.473Z,21.47
2018-11-21T05:46:02.826Z,26.33
2018-11-21T05:51:16.208Z,24.13
2018-11-21T05:56:29.553Z,25.63
2018-11-21T06:01:42.948Z,27.93
2018-11-21T06:06:56.315Z,22.07
2018-11-21T06:12:09.691Z,22.47
2018-11-21T06:17:23.058Z,26.63
2018-11-21T06:22:36.461Z,24.03
2018-11-21T06:27:49.867Z,22.00
2018-11-21T06:33:03.269Z,26.23
2018-11-21T06:38:16.647Z,25.37
2018-11-21T06:43:30.042Z,27.37
2018-11-21T06:48:43.468Z,24.20
2018-11-21T06:53:56.841Z,26.50
2018-11-21T06:59:10.228Z,25.37
2018-11-21T07:04:23.584Z,23.93
2018-11-21T07:09:36.951Z,25.33
2018-11-21T07:14:50.319Z,24.97
2018-11-21T07:20:04.362Z,25.37
2018-11-21T07:25:19.766Z,24.73
2018-11-21T07:30:33.131Z,25.60
2018-11-21T07:35:46.503Z,25.50
2018-11-21T07:41:00.056Z,27.23
2018-11-21T07:46:13.539Z,28.10
2018-11-21T07:51:26.896Z,26.70
2018-11-21T07:57:18.659Z,27.07
2018-11-21T08:02:35.974Z,22.93
2018-11-21T08:07:54.144Z,26.23
2018-11-21T08:13:26.665Z,27.13
2018-11-21T08:18:59.192Z,27.67
2018-11-21T08:24:31.703Z,25.50
2018-11-21T08:29:45.145Z,25.27
2018-11-21T08:35:00.957Z,25.57
2018-11-21T08:40:14.317Z,26.97
2018-11-21T08:45:27.675Z,25.33
2018-11-21T08:50:41.042Z,23.73
2018-11-21T08:55:54.404Z,28.50
2018-11-21T09:01:07.791Z,26.53
2018-11-21T09:06:21.167Z,24.60
2018-11-21T09:11:34.488Z,25.67
2018-11-21T09:16:47.889Z,23.67
2018-11-21T09:22:01.240Z,27.47
2018-11-21T09:27:14.602Z,26.53
2018-11-21T09:32:28.161Z,30.80
2018-11-21T09:37:41.525Z,29.87
2018-11-21T09:42:55.895Z,30.50
2018-11-21T09:48:09.260Z,26.47
2018-11-21T09:53:22.609Z,24.77
2018-11-21T09:58:35.977Z,28.93
2018-11-21T10:03:49.364Z,26.47
2018-11-21T10:09:07.435Z,21.97
2018-11-21T10:14:20.909Z,26.93
2018-11-21T10:19:34.444Z,26.73
2018-11-21T10:24:47.785Z,27.37
2018-11-21T10:30:01.198Z,27.47
2018-11-21T10:35:14.600Z,25.33
2018-11-21T10:40:27.958Z,25.47
2018-11-21T10:45:41.434Z,30.80
2018-11-21T10:50:54.798Z,24.27
2018-11-21T10:56:00.905Z,24.60
2018-11-21T11:01:33.418Z,24.87
2018-11-21T11:07:05.953Z,23.63
2018-11-21T11:12:38.468Z,23.70
2018-11-21T11:18:10.993Z,26.17
2018-11-21T11:23:43.516Z,26.57
2018-11-21T11:29:16.024Z,25.50
2018-11-21T11:34:48.548Z,26.77
2018-11-21T11:40:21.078Z,24.40
2018-11-21T11:45:53.671Z,24.43
2018-11-21T11:51:26.209Z,24.20
2018-11-21T11:56:58.787Z,26.93
2018-11-21T12:02:31.298Z,26.77
2018-11-21T12:08:03.850Z,25.93
2018-11-21T12:13:36.340Z,26.07
2018-11-21T12:19:08.882Z,23.97
2018-11-21T12:24:41.467Z,25.33
2018-11-21T12:30:14.167Z,22.77
2018-11-21T12:35:46.839Z,24.57
2018-11-21T12:41:19.370Z,25.33
2018-11-21T12:46:52.167Z,23.97
2018-11-21T12:52:24.904Z,25.67
2018-11-21T12:57:57.464Z,25.53
2018-11-21T13:03:29.990Z,25.07
2018-11-21T13:08:48.663Z,24.47
2018-11-21T13:14:21.177Z,23.93
2018-11-21T13:19:53.675Z,25.83
2018-11-21T13:25:26.227Z,22.10
2018-11-21T13:30:46.842Z,24.27
2018-11-21T13:36:19.352Z,23.67
2018-11-21T13:41:51.845Z,29.57
2018-11-21T13:47:24.402Z,24.57
2018-11-21T13:52:56.930Z,23.73
2018-11-21T13:58:10.314Z,25.40
2018-11-21T14:03:23.703Z,25.87
2018-11-21T14:08:37.076Z,25.90
2018-11-21T14:13:50.474Z,24.60
2018-11-21T14:19:04.127Z,22.73
2018-11-21T14:24:17.527Z,23.17
2018-11-21T14:29:30.890Z,24.50
2018-11-21T14:34:45.175Z,26.97
2018-11-21T14:39:58.560Z,24.27
2018-11-21T14:45:13.371Z,26.40
2018-11-21T14:50:28.979Z,25.67
2018-11-21T14:55:42.349Z,26.43
2018-11-21T15:00:55.740Z,24.10
2018-11-21T15:06:09.125Z,23.83
2018-11-21T15:11:22.505Z,28.27
2018-11-21T15:16:36.958Z,29.47
2018-11-21T15:21:49.246Z,24.77
2018-11-21T15:27:02.610Z,25.00
2018-11-21T15:32:16.018Z,27.07
2018-11-21T15:37:29.394Z,25.83
2018-11-21T15:42:42.937Z,27.60
2018-11-21T15:47:58.310Z,25.10
2018-11-21T15:53:11.716Z,28.43
2018-11-21T15:58:25.044Z,27.33
2018-11-21T16:03:38.606Z,26.07
2018-11-21T16:08:52.349Z,25.53
2018-11-21T16:14:06.097Z,26.27
2018-11-21T16:19:19.507Z,33.00
2018-11-21T16:24:32.856Z,26.97
2018-11-21T16:29:46.263Z,25.43
2018-11-21T16:34:59.706Z,27.33
2018-11-21T16:40:16.103Z,26.40
2018-11-21T16:45:31.205Z,27.43
2018-11-21T16:50:44.928Z,29.63
2018-11-21T16:55:58.448Z,25.57
2018-11-21T17:01:11.878Z,26.00
2018-11-21T17:06:25.253Z,25.90
2018-11-21T17:11:38.971Z,26.23
2018-11-21T17:16:52.349Z,27.50
2018-11-21T17:22:10.474Z,27.57
2018-11-21T17:27:22.229Z,25.60
2018-11-21T17:32:36.071Z,27.87
2018-11-21T17:37:49.826Z,27.87
2018-11-21T17:43:03.217Z,25.97
2018-11-21T17:48:16.621Z,26.90
2018-11-21T17:53:30.904Z,27.63
2018-11-21T17:58:44.281Z,28.67
2018-11-21T18:03:57.646Z,27.93
2018-11-21T18:09:12.387Z,28.07
2018-11-21T18:14:25.735Z,25.90
2018-11-21T18:19:39.158Z,27.43
2018-11-21T18:24:52.540Z,29.53
2018-11-21T18:30:09.197Z,30.13
2018-11-21T18:35:23.377Z,25.90
2018-11-21T18:40:36.742Z,30.90
2018-11-21T18:45:51.088Z,29.33
2018-11-21T18:51:05.170Z,31.20
2018-11-21T18:56:23.069Z,27.90
2018-11-21T19:01:36.480Z,27.60
2018-11-21T19:06:49.861Z,26.23
2018-11-21T19:12:03.214Z,27.60
2018-11-21T19:17:16.573Z,23.73
2018-11-21T19:22:29.949Z,23.20
2018-11-21T19:27:43.622Z,27.53
2018-11-21T19:32:56.990Z,25.53
2018-11-21T19:38:10.378Z,25.83
2018-11-21T19:43:24.157Z,26.23
2018-11-21T19:48:37.118Z,27.43
2018-11-21T19:53:50.515Z,24.07
2018-11-21T19:59:03.912Z,22.77
2018-11-21T20:04:17.341Z,23.10
2018-11-21T20:09:30.776Z,22.97
2018-11-21T20:14:44.157Z,21.27
2018-11-21T20:19:57.580Z,22.90
2018-11-21T20:25:12.643Z,22.47
2018-11-21T20:30:45.188Z,21.60
2018-11-21T20:35:58.584Z,18.53
2018-11-21T20:41:11.962Z,20.07
2018-11-21T20:46:25.355Z,20.60
2018-11-21T20:51:38.753Z,18.13
2018-11-21T20:56:52.137Z,20.00
2018-11-21T21:02:05.532Z,15.30
2018-11-21T21:07:22.493Z,13.93
2018-11-21T21:12:32.309Z,15.23
2018-11-21T21:17:46.696Z,14.00
2018-11-21T21:23:00.066Z,16.23
2018-11-21T21:28:13.447Z,15.67
2018-11-21T21:33:26.794Z,15.70
2018-11-21T21:38:40.161Z,15.33
2018-11-21T21:43:53.545Z,15.03
2018-11-21T21:49:06.949Z,15.03
2018-11-21T21:54:20.325Z,16.17
2018-11-21T21:59:33.693Z,15.17
2018-11-21T22:04:47.055Z,15.27
2018-11-21T22:10:01.287Z,15.63
2018-11-21T22:15:34.582Z,12.97
2018-11-21T22:20:48.836Z,14.80
2018-11-21T22:31:35.869Z,15.40
2018-11-21T22:36:49.288Z,16.30
2018-11-21T22:42:02.679Z,14.83
2018-11-21T22:47:16.129Z,15.87
2018-11-21T22:52:29.572Z,15.30
2018-11-21T22:57:43.685Z,15.10
2018-11-21T23:02:57.041Z,15.40
2018-11-21T23:08:04.087Z,16.77
2018-11-21T23:13:17.503Z,16.03
2018-11-21T23:18:30.863Z,14.40
2018-11-21T23:23:44.222Z,14.30
2018-11-21T23:28:57.585Z,14.70
2018-11-21T23:34:10.961Z,15.60
2018-11-21T23:39:24.316Z,16.30
2018-11-21T23:44:37.680Z,17.00
2018-11-21T23:49:51.039Z,15.60
2018-11-21T23:55:04.997Z,18.10
